createdAt,value
2024-02-29T00:00:53.399Z,12.52
2024-02-29T00:03:26.085Z,12.98
2024-02-29T00:05:56.593Z,12.07
2024-02-29T00:08:28.299Z,13.63
2024-02-29T00:10:58.350Z,12.90
2024-02-29T00:13:28.368Z,13.10
2024-02-29T00:15:59.150Z,13.90
2024-02-29T00:18:32.115Z,12.13
2024-02-29T00:21:02.394Z,11.35
2024-02-29T00:23:32.705Z,10.57
2024-02-29T00:26:02.742Z,10.35
2024-02-29T00:28:34.160Z,10.43
2024-02-29T00:31:04.350Z,10.07
2024-02-29T00:33:37.060Z,11.00
2024-02-29T00:36:10.048Z,11.52
2024-02-29T00:38:40.612Z,11.73
2024-02-29T00:41:11.262Z,11.63
2024-02-29T00:43:41.502Z,10.88
2024-02-29T00:46:11.733Z,10.02
2024-02-29T00:48:44.479Z,11.85
2024-02-29T00:51:14.399Z,11.32
2024-02-29T00:53:44.273Z,11.65
2024-02-29T00:56:14.631Z,11.68
2024-02-29T00:58:44.592Z,11.57
2024-02-29T01:01:14.708Z,11.52
2024-02-29T01:03:47.477Z,11.65
2024-02-29T01:06:17.634Z,11.50
2024-02-29T01:08:51.428Z,11.68
2024-02-29T01:11:21.972Z,11.30
2024-02-29T01:13:52.238Z,11.20
2024-02-29T01:16:22.404Z,11.10
2024-02-29T01:18:54.925Z,10.73
2024-02-29T01:21:24.961Z,10.88
2024-02-29T01:23:54.947Z,12.07
2024-02-29T01:26:24.816Z,11.35
2024-02-29T01:28:55.217Z,10.90
2024-02-29T01:31:25.102Z,11.20
2024-02-29T01:33:57.842Z,10.52
2024-02-29T01:36:27.938Z,11.52
2024-02-29T01:38:58.022Z,9.70
2024-02-29T01:41:27.960Z,10.45
2024-02-29T01:43:58.595Z,11.13
2024-02-29T01:46:28.633Z,11.40
2024-02-29T01:49:02.882Z,11.38
2024-02-29T01:51:33.701Z,11.48
2024-02-29T01:54:04.058Z,12.73
2024-02-29T01:56:34.598Z,11.13
2024-02-29T01:59:06.023Z,11.23
2024-02-29T02:01:37.221Z,11.48
2024-02-29T02:04:10.014Z,11.20
2024-02-29T02:06:40.758Z,10.57
2024-02-29T02:09:11.599Z,11.57
2024-02-29T02:11:41.434Z,10.85
2024-02-29T02:14:11.229Z,11.00
2024-02-29T02:16:41.210Z,12.23
2024-02-29T02:19:16.507Z,13.13
2024-02-29T02:21:49.189Z,11.20
2024-02-29T02:24:19.273Z,12.18
2024-02-29T02:26:50.184Z,13.88
2024-02-29T02:29:20.243Z,11.85
2024-02-29T02:31:50.349Z,12.43
2024-02-29T02:34:20.319Z,11.02
2024-02-29T02:36:54.341Z,13.52
2024-02-29T02:39:24.397Z,14.27
2024-02-29T02:41:54.326Z,12.85
2024-02-29T02:44:24.390Z,13.48
2024-02-29T02:46:54.369Z,14.18
2024-02-29T02:49:24.539Z,14.02
2024-02-29T02:51:57.125Z,12.55
2024-02-29T02:54:27.066Z,13.13
2024-02-29T02:56:57.114Z,13.50
2024-02-29T02:59:27.114Z,14.73
2024-02-29T03:01:57.174Z,14.05
2024-02-29T03:04:27.571Z,13.73
2024-02-29T03:07:00.374Z,14.55
2024-02-29T03:09:31.577Z,15.82
2024-02-29T03:12:01.859Z,13.95
2024-02-29T03:14:32.096Z,14.73
2024-02-29T03:17:02.251Z,16.77
2024-02-29T03:19:32.211Z,13.27
2024-02-29T03:22:05.319Z,14.57
2024-02-29T03:24:35.523Z,16.23
2024-02-29T03:27:05.551Z,16.13
2024-02-29T03:29:35.644Z,16.15
2024-02-29T03:32:05.859Z,14.63
2024-02-29T03:34:35.982Z,16.55
2024-02-29T03:37:09.459Z,15.68
2024-02-29T03:39:39.618Z,15.60
2024-02-29T03:42:09.682Z,15.50
2024-02-29T03:44:42.731Z,18.63
2024-02-29T03:47:12.879Z,16.60
2024-02-29T03:49:43.135Z,17.65
2024-02-29T03:52:16.105Z,16.20
2024-02-29T03:54:46.579Z,16.88
2024-02-29T03:57:16.641Z,16.25
2024-02-29T03:59:48.572Z,15.80
2024-02-29T04:02:18.999Z,16.90
2024-02-29T04:04:49.229Z,18.67
2024-02-29T04:07:22.393Z,16.60
2024-02-29T04:09:56.102Z,19.58
2024-02-29T04:12:26.605Z,19.23
2024-02-29T04:14:56.571Z,16.92
2024-02-29T04:17:26.687Z,19.50
2024-02-29T04:19:56.877Z,16.08
2024-02-29T04:22:31.105Z,17.67
2024-02-29T04:25:01.258Z,19.15
2024-02-29T04:27:31.303Z,17.70
2024-02-29T04:30:01.484Z,25.00
2024-02-29T04:32:31.598Z,20.15
2024-02-29T04:35:03.763Z,17.55
2024-02-29T04:37:36.385Z,15.75
2024-02-29T04:40:11.065Z,17.27
2024-02-29T04:42:41.620Z,19.60
2024-02-29T04:45:12.685Z,19.25
2024-02-29T04:47:43.796Z,17.83
2024-02-29T04:50:13.916Z,17.15
2024-02-29T04:52:46.540Z,16.08
2024-02-29T04:55:16.736Z,20.05
2024-02-29T04:57:47.008Z,28.65
2024-02-29T05:00:18.146Z,19.50
2024-02-29T05:02:48.156Z,15.93
2024-02-29T05:05:18.413Z,18.00
2024-02-29T05:07:50.924Z,16.92
2024-02-29T05:10:20.916Z,16.23
2024-02-29T05:12:51.952Z,17.27
2024-02-29T05:15:24.205Z,21.17
2024-02-29T05:17:54.368Z,21.90
2024-02-29T05:20:24.411Z,21.55
2024-02-29T05:22:56.948Z,13.77
2024-02-29T05:25:27.548Z,16.48
2024-02-29T05:27:57.646Z,15.65
2024-02-29T05:30:27.717Z,19.90
2024-02-29T05:32:57.778Z,20.48
2024-02-29T05:35:27.835Z,17.65
2024-02-29T05:38:00.489Z,20.92
2024-02-29T05:40:30.815Z,23.85
2024-02-29T05:43:01.107Z,17.02
2024-02-29T05:45:31.182Z,19.83
2024-02-29T05:48:01.128Z,21.80
2024-02-29T05:50:34.004Z,20.25
2024-02-29T05:53:07.292Z,19.88
2024-02-29T05:55:37.306Z,19.02
2024-02-29T05:58:07.914Z,23.90
2024-02-29T06:00:38.017Z,20.27
2024-02-29T06:03:08.789Z,23.83
2024-02-29T06:05:39.808Z,19.23
2024-02-29T06:08:16.281Z,23.40
2024-02-29T06:10:48.391Z,19.73
2024-02-29T06:13:18.819Z,20.00
2024-02-29T06:15:49.114Z,21.38
2024-02-29T06:18:19.999Z,27.92
2024-02-29T06:20:50.067Z,17.25
2024-02-29T06:23:22.553Z,14.32
2024-02-29T06:25:52.794Z,16.17
2024-02-29T06:28:24.481Z,19.85
2024-02-29T06:30:55.013Z,16.98
2024-02-29T06:33:25.727Z,18.38
2024-02-29T06:35:55.693Z,18.65
2024-02-29T06:38:28.274Z,17.17
2024-02-29T06:40:58.276Z,16.75
2024-02-29T06:43:30.783Z,18.08
2024-02-29T06:46:05.781Z,19.13
2024-02-29T06:48:35.930Z,15.50
2024-02-29T06:51:06.379Z,20.45
2024-02-29T06:53:39.706Z,17.75
2024-02-29T06:56:09.592Z,20.55
2024-02-29T06:58:39.463Z,15.50
2024-02-29T07:01:09.553Z,17.00
2024-02-29T07:03:39.620Z,14.93
2024-02-29T07:06:10.534Z,14.65
2024-02-29T07:08:43.209Z,14.88
2024-02-29T07:11:15.404Z,15.65
2024-02-29T07:13:45.976Z,16.63
2024-02-29T07:16:16.153Z,14.35
2024-02-29T07:18:46.263Z,14.73
2024-02-29T07:21:16.534Z,15.80
2024-02-29T07:23:49.018Z,14.60
2024-02-29T07:26:19.222Z,15.57
2024-02-29T07:28:51.356Z,15.52
2024-02-29T07:31:21.660Z,16.40
2024-02-29T07:33:51.890Z,14.27
2024-02-29T07:36:22.736Z,16.15
2024-02-29T07:38:55.343Z,15.43
2024-02-29T07:41:25.371Z,15.82
2024-02-29T07:43:55.415Z,15.30
2024-02-29T07:46:25.456Z,12.88
2024-02-29T07:48:55.516Z,13.00
2024-02-29T07:51:25.752Z,14.90
2024-02-29T07:53:58.440Z,10.02
2024-02-29T07:56:30.304Z,8.00
2024-02-29T07:59:00.425Z,14.13
2024-02-29T08:01:30.547Z,14.88
2024-02-29T08:04:03.899Z,14.35
2024-02-29T08:06:35.974Z,13.52
2024-02-29T08:09:10.918Z,15.43
2024-02-29T08:11:41.182Z,13.02
2024-02-29T08:14:11.165Z,14.57
2024-02-29T08:16:41.074Z,13.25
2024-02-29T08:19:11.157Z,14.45
2024-02-29T08:21:41.478Z,13.27
2024-02-29T08:24:15.049Z,14.10
2024-02-29T08:26:45.619Z,13.75
2024-02-29T08:29:17.918Z,13.70
2024-02-29T08:31:48.403Z,13.85
2024-02-29T08:34:18.550Z,14.43
2024-02-29T08:36:51.318Z,15.05
2024-02-29T08:39:23.992Z,14.48
2024-02-29T08:41:54.192Z,13.55
2024-02-29T08:44:24.204Z,12.60
2024-02-29T08:46:54.871Z,12.25
2024-02-29T08:49:25.158Z,13.25
2024-02-29T08:51:55.493Z,14.15
2024-02-29T08:54:28.215Z,13.73
2024-02-29T08:56:58.361Z,11.68
2024-02-29T08:59:28.331Z,14.68
2024-02-29T09:01:58.687Z,14.82
2024-02-29T09:04:28.749Z,13.82
2024-02-29T09:06:58.773Z,14.90
2024-02-29T09:09:32.093Z,15.63
2024-02-29T09:12:02.100Z,13.93
2024-02-29T09:14:32.144Z,15.32
2024-02-29T09:17:02.091Z,14.80
2024-02-29T09:19:32.651Z,14.45
2024-02-29T09:22:03.142Z,14.02
2024-02-29T09:24:35.941Z,16.15
2024-02-29T09:27:06.568Z,15.07
2024-02-29T09:29:36.652Z,16.40
2024-02-29T09:32:07.121Z,14.02
2024-02-29T09:34:41.854Z,15.52
2024-02-29T09:37:14.755Z,13.23
2024-02-29T09:39:47.459Z,14.05
2024-02-29T09:42:17.646Z,14.82
2024-02-29T09:44:47.695Z,14.77
2024-02-29T09:47:20.503Z,14.65
2024-02-29T09:49:56.671Z,15.02
2024-02-29T09:52:30.272Z,13.43
2024-02-29T09:55:06.219Z,13.35
2024-02-29T10:00:11.819Z,14.80
2024-02-29T10:02:43.812Z,13.63
2024-02-29T10:05:14.120Z,13.75
2024-02-29T10:07:49.237Z,14.93
2024-02-29T10:10:22.582Z,14.20
2024-02-29T10:12:57.731Z,14.57
2024-02-29T10:15:31.823Z,14.17
2024-02-29T10:18:02.401Z,13.82
2024-02-29T10:20:33.604Z,14.35
2024-02-29T10:23:03.738Z,12.40
2024-02-29T10:25:38.178Z,13.10
2024-02-29T10:28:08.684Z,13.38
2024-02-29T10:30:39.036Z,13.40
2024-02-29T10:33:14.532Z,13.32
2024-02-29T10:35:44.852Z,14.27
2024-02-29T10:38:16.302Z,14.57
2024-02-29T10:40:53.164Z,14.48
2024-02-29T10:43:24.327Z,15.27
2024-02-29T10:45:54.756Z,12.48
2024-02-29T10:48:31.839Z,14.68
2024-02-29T10:51:04.874Z,12.38
2024-02-29T10:53:44.390Z,11.40
2024-02-29T10:56:24.817Z,11.88
2024-02-29T10:59:04.382Z,11.48
2024-02-29T11:01:35.762Z,8.55
2024-02-29T11:04:07.266Z,12.52
2024-02-29T11:06:44.133Z,13.15
2024-02-29T11:09:15.758Z,12.45
2024-02-29T11:11:48.743Z,13.85
2024-02-29T11:14:21.577Z,12.77
2024-02-29T11:16:51.656Z,15.25
2024-02-29T11:19:22.620Z,13.60
2024-02-29T11:21:52.927Z,12.60
2024-02-29T11:24:24.344Z,16.38
2024-02-29T11:27:00.701Z,14.52
2024-02-29T11:29:31.031Z,16.20
2024-02-29T11:32:01.870Z,14.35
2024-02-29T11:34:32.045Z,14.25
2024-02-29T11:37:02.509Z,14.32
2024-02-29T11:39:32.541Z,14.95
2024-02-29T11:42:12.367Z,12.13
2024-02-29T11:44:49.703Z,13.80
2024-02-29T11:47:19.649Z,14.95
2024-02-29T11:49:49.650Z,14.75
2024-02-29T11:52:19.809Z,14.68
2024-02-29T11:54:50.275Z,14.93
2024-02-29T11:57:23.289Z,16.77
2024-02-29T11:59:56.434Z,14.13
2024-02-29T12:02:26.772Z,14.38
2024-02-29T12:04:57.338Z,12.90
2024-02-29T12:07:28.626Z,14.20
2024-02-29T12:12:48.002Z,15.82
2024-02-29T12:15:18.190Z,14.57
2024-02-29T12:17:51.472Z,13.50
2024-02-29T12:20:21.757Z,11.88
2024-02-29T12:23:01.196Z,14.98
2024-02-29T12:25:31.782Z,14.02
2024-02-29T12:28:04.532Z,13.85
2024-02-29T12:30:36.144Z,14.73
2024-02-29T12:33:06.678Z,14.75
2024-02-29T12:35:37.529Z,14.18
2024-02-29T12:38:09.629Z,14.85
2024-02-29T12:40:39.764Z,14.13
2024-02-29T12:43:18.734Z,15.75
2024-02-29T12:45:49.202Z,12.10
2024-02-29T12:48:19.295Z,14.80
2024-02-29T12:50:49.338Z,15.35
2024-02-29T12:53:19.230Z,16.23
2024-02-29T12:55:49.544Z,14.48
2024-02-29T12:58:22.173Z,11.98
2024-02-29T13:00:52.538Z,14.52
2024-02-29T13:03:23.027Z,11.65
2024-02-29T13:05:53.004Z,10.60
2024-02-29T13:08:25.044Z,13.75
2024-02-29T13:10:57.229Z,15.05
2024-02-29T13:13:29.831Z,15.15
2024-02-29T13:15:59.953Z,15.85
2024-02-29T13:18:29.835Z,15.52
2024-02-29T13:21:04.645Z,10.23
2024-02-29T13:23:35.633Z,14.65
2024-02-29T13:26:23.808Z,10.77
2024-02-29T13:28:56.664Z,13.40
2024-02-29T13:31:26.929Z,11.43
2024-02-29T13:33:57.167Z,14.35
2024-02-29T13:36:27.347Z,14.48
2024-02-29T13:38:57.406Z,17.73
2024-02-29T13:41:27.637Z,11.70
2024-02-29T13:44:00.337Z,9.93
2024-02-29T13:46:32.843Z,11.50
2024-02-29T13:49:20.821Z,13.05
2024-02-29T13:51:53.143Z,16.55
2024-02-29T13:54:23.314Z,15.15
2024-02-29T13:56:54.588Z,16.15
2024-02-29T13:59:29.217Z,14.55
2024-02-29T14:01:59.780Z,13.35
2024-02-29T14:04:30.078Z,14.85
2024-02-29T14:07:00.259Z,12.38
2024-02-29T14:09:32.061Z,14.65
2024-02-29T14:12:02.157Z,14.43
2024-02-29T14:14:34.729Z,17.85
2024-02-29T14:17:05.004Z,13.30
2024-02-29T14:19:36.800Z,16.23
2024-02-29T14:22:07.444Z,16.02
2024-02-29T14:24:37.440Z,15.23
2024-02-29T14:27:07.574Z,15.20
2024-02-29T14:29:40.337Z,17.63
2024-02-29T14:32:13.049Z,13.23
2024-02-29T14:34:43.168Z,16.95
2024-02-29T14:37:13.258Z,16.10
2024-02-29T14:39:44.679Z,14.52
2024-02-29T14:42:15.517Z,13.68
2024-02-29T14:44:48.846Z,17.40
2024-02-29T14:47:19.093Z,16.58
2024-02-29T14:49:49.266Z,13.85
2024-02-29T14:52:19.364Z,19.75
2024-02-29T14:54:49.721Z,20.10
2024-02-29T14:57:19.745Z,17.10
2024-02-29T14:59:52.422Z,19.25
2024-02-29T15:02:25.037Z,18.67
2024-02-29T15:04:55.432Z,18.30
2024-02-29T15:07:25.673Z,19.58
2024-02-29T15:09:55.719Z,18.60
2024-02-29T15:12:25.963Z,17.88
2024-02-29T15:14:58.748Z,18.77
2024-02-29T15:17:32.840Z,18.60
2024-02-29T15:20:04.655Z,18.55
2024-02-29T15:22:34.748Z,18.45
2024-02-29T15:25:05.686Z,18.33
2024-02-29T15:27:39.758Z,18.30
2024-02-29T15:30:13.760Z,18.17
2024-02-29T15:32:43.869Z,20.42
2024-02-29T15:35:13.950Z,19.63
2024-02-29T15:37:44.319Z,19.30
2024-02-29T15:40:15.534Z,19.52
2024-02-29T15:42:45.631Z,18.42
2024-02-29T15:45:18.517Z,19.38
2024-02-29T15:47:48.830Z,18.92
2024-02-29T15:50:18.969Z,17.75
2024-02-29T15:52:48.994Z,19.00
2024-02-29T15:55:19.239Z,17.92
2024-02-29T15:57:49.348Z,17.15
2024-02-29T16:00:24.242Z,19.20
2024-02-29T16:02:54.415Z,19.13
2024-02-29T16:05:24.462Z,18.48
2024-02-29T16:07:55.884Z,18.42
2024-02-29T16:10:26.166Z,18.50
2024-02-29T16:12:56.529Z,19.23
2024-02-29T16:15:29.520Z,21.00
2024-02-29T16:17:59.562Z,19.92
2024-02-29T16:20:29.969Z,19.42
2024-02-29T16:22:59.832Z,18.75
2024-02-29T16:25:29.948Z,16.83
2024-02-29T16:28:00.051Z,18.38
2024-02-29T16:30:34.261Z,18.48
2024-02-29T16:33:04.451Z,16.52
2024-02-29T16:35:35.157Z,20.63
2024-02-29T16:38:05.483Z,14.43
2024-02-29T16:40:37.647Z,17.50
2024-02-29T16:43:07.970Z,19.70
2024-02-29T16:45:40.876Z,18.27
2024-02-29T16:48:11.531Z,19.00
2024-02-29T16:50:43.159Z,17.55
2024-02-29T16:53:13.291Z,19.42
2024-02-29T16:55:43.307Z,19.38
2024-02-29T16:58:13.653Z,21.33
2024-02-29T17:00:48.468Z,20.02
2024-02-29T17:03:18.612Z,20.35
2024-02-29T17:05:49.907Z,21.35
2024-02-29T17:08:20.026Z,18.48
2024-02-29T17:10:50.403Z,20.48
2024-02-29T17:13:21.280Z,20.15
2024-02-29T17:15:54.167Z,18.52
2024-02-29T17:18:25.687Z,17.83
2024-02-29T17:20:56.033Z,20.92
2024-02-29T17:23:26.099Z,19.63
2024-02-29T17:25:56.094Z,22.83
2024-02-29T17:28:26.140Z,16.85
2024-02-29T17:30:59.368Z,19.65
2024-02-29T17:33:29.686Z,23.13
2024-02-29T17:36:00.200Z,20.33
2024-02-29T17:38:30.409Z,20.02
2024-02-29T17:41:00.398Z,15.80
2024-02-29T17:43:30.449Z,21.27
2024-02-29T17:46:03.670Z,21.20
2024-02-29T17:48:34.007Z,18.10
2024-02-29T17:51:07.172Z,21.55
2024-02-29T17:53:37.382Z,20.35
2024-02-29T17:56:08.985Z,22.73
2024-02-29T17:58:39.410Z,23.90
2024-02-29T18:01:12.169Z,26.35
2024-02-29T18:03:44.091Z,24.25
2024-02-29T18:06:14.733Z,24.80
2024-02-29T18:08:45.019Z,25.08
2024-02-29T18:11:15.233Z,24.08
2024-02-29T18:13:45.354Z,24.60
2024-02-29T18:16:18.421Z,27.33
2024-02-29T18:18:48.522Z,28.80
2024-02-29T18:21:18.643Z,28.27
2024-02-29T18:23:48.645Z,30.10
2024-02-29T18:26:20.614Z,29.50
2024-02-29T18:28:52.005Z,29.38
2024-02-29T18:31:34.373Z,28.42
2024-02-29T18:34:04.628Z,29.55
2024-02-29T18:36:35.890Z,29.90
2024-02-29T18:39:13.169Z,29.88
2024-02-29T18:41:44.917Z,30.00
2024-02-29T18:44:15.807Z,30.20
2024-02-29T18:46:49.335Z,29.60
2024-02-29T18:49:21.079Z,30.75
2024-02-29T18:51:52.368Z,28.75
2024-02-29T18:54:22.705Z,29.63
2024-02-29T18:56:52.895Z,31.08
2024-02-29T18:59:23.308Z,32.65
2024-02-29T19:01:58.894Z,31.88
2024-02-29T19:04:29.662Z,32.50
2024-02-29T19:06:59.866Z,31.55
2024-02-29T19:09:29.930Z,33.20
2024-02-29T19:12:01.434Z,33.78
2024-02-29T19:14:31.978Z,33.45
2024-02-29T19:17:05.004Z,33.75
2024-02-29T19:19:41.478Z,32.42
2024-02-29T19:22:11.608Z,33.80
2024-02-29T19:24:42.004Z,33.13
2024-02-29T19:27:12.088Z,33.72
2024-02-29T19:29:42.191Z,32.75
2024-02-29T19:32:15.181Z,34.50
2024-02-29T19:34:45.371Z,33.47
2024-02-29T19:37:15.729Z,37.38
2024-02-29T19:39:48.366Z,36.28
2024-02-29T19:42:18.657Z,33.90
2024-02-29T19:44:48.955Z,35.83
2024-02-29T19:47:24.592Z,34.55
2024-02-29T19:49:54.915Z,36.20
2024-02-29T19:52:25.129Z,33.95
2024-02-29T19:54:56.534Z,34.85
2024-02-29T19:57:28.920Z,37.03
2024-02-29T19:59:59.309Z,33.90
2024-02-29T20:02:34.327Z,36.60
2024-02-29T20:05:20.362Z,36.92
2024-02-29T20:07:51.335Z,35.90
2024-02-29T20:10:26.531Z,33.42
2024-02-29T20:13:07.644Z,35.88
2024-02-29T20:15:40.235Z,37.78
2024-02-29T20:18:13.048Z,36.60
2024-02-29T20:20:44.235Z,38.05
2024-02-29T20:23:14.859Z,38.45
2024-02-29T20:25:45.988Z,36.97
2024-02-29T20:28:17.442Z,34.78
2024-02-29T20:30:49.071Z,31.13
2024-02-29T20:33:21.751Z,28.15
2024-02-29T20:35:51.808Z,23.13
2024-02-29T20:38:22.172Z,25.85
2024-02-29T20:40:52.414Z,30.88
2024-02-29T20:43:22.809Z,32.70
2024-02-29T20:45:53.074Z,34.03
2024-02-29T20:48:26.192Z,33.85
2024-02-29T20:50:58.429Z,36.03
2024-02-29T20:53:28.822Z,37.00
2024-02-29T20:55:58.738Z,35.42
2024-02-29T20:58:28.961Z,36.50
2024-02-29T21:01:00.356Z,33.03
2024-02-29T21:03:33.616Z,38.63
2024-02-29T21:06:03.830Z,36.17
2024-02-29T21:08:34.062Z,37.10
2024-02-29T21:11:04.866Z,38.72
2024-02-29T21:13:37.407Z,39.83
2024-02-29T21:16:08.283Z,39.13
2024-02-29T21:18:41.606Z,35.45
2024-02-29T21:21:16.371Z,27.88
2024-02-29T21:23:48.127Z,32.10
2024-02-29T21:26:18.139Z,37.60
2024-02-29T21:28:50.529Z,31.50
2024-02-29T21:31:20.747Z,35.95
2024-02-29T21:33:53.443Z,35.80
2024-02-29T21:36:24.965Z,35.85
2024-02-29T21:38:58.557Z,37.30
2024-02-29T21:41:28.500Z,38.08
2024-02-29T21:43:58.743Z,34.60
2024-02-29T21:49:37.944Z,36.33
2024-02-29T21:52:08.949Z,39.28
2024-02-29T21:54:43.445Z,37.45
2024-02-29T21:57:16.160Z,33.67
2024-02-29T21:59:49.842Z,42.33
2024-02-29T22:02:19.956Z,43.25
2024-02-29T22:04:55.955Z,44.85
2024-02-29T22:07:26.194Z,46.58
2024-02-29T22:09:57.680Z,47.78
2024-02-29T22:12:27.854Z,42.90
2024-02-29T22:14:57.823Z,36.88
2024-02-29T22:17:27.995Z,46.35
2024-02-29T22:20:00.646Z,37.63
2024-02-29T22:22:30.922Z,40.80
2024-02-29T22:25:01.073Z,33.45
2024-02-29T22:27:31.238Z,45.80
2024-02-29T22:30:01.356Z,42.92
2024-02-29T22:32:31.479Z,41.85
2024-02-29T22:35:07.977Z,46.75
2024-02-29T22:37:38.271Z,42.53
2024-02-29T22:40:10.529Z,31.98
2024-02-29T22:42:40.685Z,41.40
2024-02-29T22:45:13.462Z,41.13
2024-02-29T22:47:44.087Z,32.75
2024-02-29T22:50:16.868Z,39.60
2024-02-29T22:52:47.115Z,43.08
2024-02-29T22:55:17.473Z,42.08
2024-02-29T22:57:49.974Z,38.83
2024-02-29T23:00:27.275Z,45.30
2024-02-29T23:02:57.368Z,46.58
2024-02-29T23:05:31.352Z,36.15
2024-02-29T23:08:01.571Z,41.95
2024-02-29T23:10:31.711Z,38.28
2024-02-29T23:13:01.966Z,44.28
2024-02-29T23:15:32.309Z,41.40
2024-02-29T23:18:02.797Z,38.20
2024-02-29T23:20:35.472Z,33.63
2024-02-29T23:23:06.196Z,43.90
2024-02-29T23:25:36.518Z,42.25
2024-02-29T23:28:07.155Z,40.80
2024-02-29T23:30:37.216Z,40.58
2024-02-29T23:33:08.196Z,40.50
2024-02-29T23:35:40.955Z,32.17
2024-02-29T23:38:11.453Z,40.65
2024-02-29T23:40:41.608Z,40.97
2024-02-29T23:43:11.781Z,41.92
2024-02-29T23:45:42.180Z,43.60
2024-02-29T23:48:13.052Z,40.50
2024-02-29T23:50:45.701Z,39.58
2024-02-29T23:53:16.136Z,38.67
2024-02-29T23:55:46.173Z,39.97
2024-02-29T23:58:16.381Z,37.95
